Time;durP1;ratioP1;P1;durP2;ratioP2;P2;SDS_P1;SDS_P2;PMS_P1;PMS_P2;Temp;Humidity;BMP_temperature;BMP_pressure;BME280_temperature;BME280_humidity;BME280_pressure;Samples;Min_cycle;Max_cycle;Signal;HPM_P1;HPM_P2
2023/11/15 00:01:57;;;;;;;24.88;5.43;;;10.30;99.90;;;;;;5088546;28;20048;-86
2023/11/15 00:04:23;;;;;;;20.27;4.40;;;10.40;99.90;;;;;;5081532;28;20020;-86
2023/11/15 00:06:49;;;;;;;26.50;3.80;;;10.50;99.90;;;;;;5082493;28;20080;-87
2023/11/15 00:09:15;;;;;;;27.25;3.92;;;10.40;99.90;;;;;;5055144;28;20502;-86
2023/11/15 00:11:41;;;;;;;29.05;3.30;;;10.50;99.90;;;;;;5089441;28;20060;-87
2023/11/15 00:14:07;;;;;;;30.67;3.10;;;10.50;99.90;;;;;;5078050;28;20055;-87
2023/11/15 00:16:32;;;;;;;16.70;2.88;;;10.60;99.90;;;;;;5081627;28;20028;-87
2023/11/15 00:18:58;;;;;;;27.98;3.50;;;10.60;99.90;;;;;;5072981;28;20399;-87
2023/11/15 00:21:23;;;;;;;25.58;3.08;;;10.60;99.90;;;;;;5070979;28;20038;-87
2023/11/15 00:23:49;;;;;;;24.33;3.28;;;10.60;99.90;;;;;;5079460;28;20024;-87
2023/11/15 00:26:14;;;;;;;23.77;2.30;;;10.60;99.90;;;;;;5097766;28;20034;-88
2023/11/15 00:28:40;;;;;;;19.73;3.30;;;10.60;99.90;;;;;;5080549;28;20115;-88
2023/11/15 00:31:06;;;;;;;17.15;2.35;;;10.60;99.90;;;;;;5081667;28;20035;-88
2023/11/15 00:33:34;;;;;;;37.28;5.50;;;10.60;99.90;;;;;;5081080;28;20039;-87
2023/11/15 00:36:00;;;;;;;14.98;2.95;;;10.60;99.90;;;;;;5080368;28;20036;-87
2023/11/15 00:38:29;;;;;;;24.33;3.17;;;10.70;99.90;;;;;;5080102;28;20032;-86
2023/11/15 00:40:54;;;;;;;28.35;4.28;;;10.60;99.90;;;;;;5074207;28;20031;-86
2023/11/15 00:43:20;;;;;;;27.17;3.15;;;10.60;99.90;;;;;;5073004;28;20024;-87
2023/11/15 00:45:45;;;;;;;26.45;4.28;;;10.70;99.90;;;;;;5075099;28;20036;-85
2023/11/15 00:48:12;;;;;;;25.50;3.20;;;10.70;99.90;;;;;;5074511;28;20085;-86
2023/11/15 00:50:37;;;;;;;19.30;2.80;;;10.70;99.90;;;;;;5088052;28;20497;-85
2023/11/15 00:53:04;;;;;;;24.05;3.53;;;10.70;99.90;;;;;;5081254;28;20063;-87
2023/11/15 00:55:30;;;;;;;25.05;3.92;;;10.70;99.90;;;;;;5080338;28;20032;-86
2023/11/15 00:57:58;;;;;;;23.23;3.30;;;10.70;99.90;;;;;;5088291;28;20027;-87
2023/11/15 01:00:23;;;;;;;21.77;3.58;;;10.70;99.90;;;;;;5085094;28;20084;-86
2023/11/15 01:02:57;;;;;;;19.15;2.78;;;10.70;99.90;;;;;;5076764;28;20452;-87
2023/11/15 01:05:24;;;;;;;26.35;2.97;;;10.70;99.90;;;;;;5080591;28;20444;-86
2023/11/15 01:07:50;;;;;;;19.88;2.78;;;10.70;99.90;;;;;;5080594;28;20040;-87
2023/11/15 01:10:18;;;;;;;18.60;3.50;;;10.70;99.90;;;;;;5078238;28;20107;-87
2023/11/15 01:12:44;;;;;;;22.77;3.50;;;10.70;99.90;;;;;;5078696;28;20028;-88
2023/11/15 01:15:11;;;;;;;26.20;2.88;;;10.80;99.90;;;;;;5080655;28;20083;-87
2023/11/15 01:17:37;;;;;;;26.15;3.40;;;10.80;99.90;;;;;;5078721;28;20040;-87
2023/11/15 01:20:04;;;;;;;28.10;2.83;;;10.70;99.90;;;;;;5097074;28;20062;-87
2023/11/15 01:22:30;;;;;;;22.45;2.97;;;10.70;99.90;;;;;;5080095;28;20028;-88
2023/11/15 01:24:56;;;;;;;19.77;3.17;;;10.70;99.90;;;;;;5075781;28;20020;-88
2023/11/15 01:27:21;;;;;;;16.23;2.65;;;10.80;99.90;;;;;;5077838;28;20037;-88
2023/11/15 01:29:47;;;;;;;25.88;4.20;;;10.70;99.90;;;;;;5073889;28;20430;-90
2023/11/15 01:32:12;;;;;;;25.65;4.28;;;10.70;99.90;;;;;;5075206;28;20032;-89
2023/11/15 01:34:38;;;;;;;23.00;3.13;;;10.80;99.90;;;;;;5076768;28;20032;-89
2023/11/15 01:37:04;;;;;;;23.08;3.15;;;10.80;99.90;;;;;;5077719;28;20028;-88
2023/11/15 01:39:30;;;;;;;21.02;2.70;;;10.80;99.90;;;;;;5078417;28;20480;-89
2023/11/15 01:41:56;;;;;;;14.77;2.47;;;10.80;99.90;;;;;;5075063;28;20032;-88
2023/11/15 01:44:22;;;;;;;18.15;2.60;;;10.70;99.90;;;;;;5076397;28;20020;-88
2023/11/15 01:46:51;;;;;;;17.88;2.22;;;10.70;99.90;;;;;;5076746;28;20036;-89
2023/11/15 01:49:18;;;;;;;18.90;2.30;;;10.80;99.90;;;;;;5076951;28;20032;-88
2023/11/15 01:51:45;;;;;;;21.83;4.43;;;10.80;99.90;;;;;;5075794;28;20036;-88
2023/11/15 01:54:13;;;;;;;15.02;2.38;;;10.80;99.90;;;;;;5076502;28;20050;-88
2023/11/15 01:56:39;;;;;;;19.73;2.40;;;10.80;99.90;;;;;;5076766;28;20028;-88
2023/11/15 01:59:06;;;;;;;19.70;2.42;;;10.80;99.90;;;;;;5073540;28;20025;-88
2023/11/15 02:01:32;;;;;;;22.00;2.70;;;10.80;99.90;;;;;;5075342;28;20047;-88
2023/11/15 02:03:58;;;;;;;19.63;2.00;;;10.70;99.90;;;;;;5074912;28;20071;-88
2023/11/15 02:06:35;;;;;;;16.30;2.35;;;10.70;99.90;;;;;;5073551;28;20068;-87
2023/11/15 02:09:01;;;;;;;22.30;2.13;;;10.70;99.90;;;;;;5072889;28;20016;-88
2023/11/15 02:11:27;;;;;;;17.48;3.33;;;10.70;99.90;;;;;;5075936;28;20028;-88
2023/11/15 02:13:54;;;;;;;21.30;2.85;;;10.60;99.90;;;;;;5075378;28;20547;-88
2023/11/15 02:16:21;;;;;;;13.50;2.47;;;10.60;99.90;;;;;;5075685;28;20115;-88
2023/11/15 02:18:47;;;;;;;15.77;2.45;;;10.60;99.90;;;;;;5072925;28;20020;-88
2023/11/15 02:21:12;;;;;;;16.33;1.95;;;10.60;99.90;;;;;;5076621;28;20388;-87
2023/11/15 02:23:45;;;;;;;19.45;2.17;;;10.60;99.90;;;;;;5071727;28;20024;-88
2023/11/15 02:26:11;;;;;;;22.27;2.35;;;10.60;99.90;;;;;;5062820;28;20067;-88
2023/11/15 02:28:37;;;;;;;18.63;2.20;;;10.70;99.90;;;;;;5056304;28;20024;-88
2023/11/15 02:31:03;;;;;;;16.40;3.35;;;10.70;99.90;;;;;;5076898;28;20034;-88
2023/11/15 02:33:29;;;;;;;18.55;1.50;;;10.70;99.90;;;;;;5075701;28;20027;-88
2023/11/15 02:35:55;;;;;;;19.77;3.47;;;10.70;99.90;;;;;;5075287;28;20380;-88
2023/11/15 02:38:20;;;;;;;17.33;1.77;;;10.70;99.90;;;;;;5076443;28;20096;-88
2023/11/15 02:40:46;;;;;;;19.25;2.00;;;10.70;99.90;;;;;;5076043;28;20080;-88
2023/11/15 02:43:12;;;;;;;17.73;2.63;;;10.70;99.90;;;;;;5071751;28;20104;-88
2023/11/15 02:45:38;;;;;;;15.00;1.92;;;10.70;99.90;;;;;;5076832;28;20496;-88
2023/11/15 02:48:04;;;;;;;17.30;2.33;;;10.70;99.90;;;;;;5076051;28;20024;-88
2023/11/15 02:50:30;;;;;;;24.13;2.88;;;10.70;99.90;;;;;;5075785;28;20048;-88
2023/11/15 02:52:56;;;;;;;22.50;2.20;;;10.70;99.90;;;;;;5076162;28;20034;-88
2023/11/15 02:55:21;;;;;;;19.48;2.15;;;10.70;99.90;;;;;;5071983;28;20036;-88
2023/11/15 02:57:47;;;;;;;16.85;1.95;;;10.70;99.90;;;;;;5088372;28;20028;-88
2023/11/15 03:00:13;;;;;;;13.60;1.45;;;10.70;99.90;;;;;;5059978;28;20502;-87
2023/11/15 03:02:39;;;;;;;16.20;1.55;;;10.70;99.90;;;;;;5070503;28;20051;-88
2023/11/15 03:05:06;;;;;;;17.60;1.48;;;10.80;99.90;;;;;;5071969;28;20069;-88
2023/11/15 03:07:32;;;;;;;17.92;1.60;;;10.70;99.90;;;;;;5085137;28;20024;-88
2023/11/15 03:09:58;;;;;;;20.98;1.90;;;10.80;99.90;;;;;;5072659;28;20020;-88
2023/11/15 03:12:23;;;;;;;11.88;1.02;;;10.80;99.90;;;;;;5075029;28;20042;-88
2023/11/15 03:14:49;;;;;;;10.35;1.13;;;10.80;99.90;;;;;;5093637;28;20098;-88
2023/11/15 03:17:16;;;;;;;13.00;2.13;;;10.80;99.90;;;;;;5072626;28;20051;-87
2023/11/15 03:19:42;;;;;;;12.50;1.50;;;10.70;99.90;;;;;;5075024;28;20020;-85
2023/11/15 03:22:07;;;;;;;12.52;1.63;;;10.80;99.90;;;;;;5074476;28;20088;-86
2023/11/15 03:24:33;;;;;;;15.77;1.33;;;10.70;99.90;;;;;;5074747;28;20028;-86
2023/11/15 03:26:58;;;;;;;17.88;2.30;;;10.70;99.90;;;;;;5071854;28;20090;-86
2023/11/15 03:29:24;;;;;;;14.80;1.67;;;10.70;99.90;;;;;;5069726;28;20070;-86
2023/11/15 03:31:49;;;;;;;16.45;1.30;;;10.60;99.90;;;;;;5073937;28;20024;-86
2023/11/15 03:34:15;;;;;;;12.60;1.25;;;10.60;99.90;;;;;;5074032;28;20039;-85
2023/11/15 03:36:42;;;;;;;10.25;0.90;;;10.50;99.90;;;;;;5074737;28;20031;-86
2023/11/15 03:39:08;;;;;;;8.00;0.73;;;10.50;99.90;;;;;;5074206;28;20024;-87
2023/11/15 03:41:34;;;;;;;8.75;1.02;;;10.40;99.90;;;;;;5074093;28;20028;-87
2023/11/15 03:44:00;;;;;;;22.40;1.75;;;10.30;99.90;;;;;;5069519;28;20423;-87
2023/11/15 03:46:26;;;;;;;20.13;1.73;;;10.30;99.90;;;;;;5069707;28;20043;-87
2023/11/15 03:48:52;;;;;;;14.02;1.35;;;10.40;99.90;;;;;;5073675;28;20082;-87
2023/11/15 03:51:18;;;;;;;13.90;1.70;;;10.40;99.90;;;;;;5074274;28;21817;-87
2023/11/15 03:53:43;;;;;;;18.10;1.50;;;10.40;99.90;;;;;;5074350;28;20028;-87
2023/11/15 03:56:09;;;;;;;23.60;1.35;;;10.40;99.90;;;;;;5093037;28;20032;-87
2023/11/15 03:58:35;;;;;;;13.77;1.00;;;10.50;99.90;;;;;;5072106;28;20027;-87
2023/11/15 04:01:01;;;;;;;15.25;1.65;;;10.50;99.90;;;;;;5088993;28;20024;-88
2023/11/15 04:03:27;;;;;;;16.95;1.77;;;10.40;99.90;;;;;;5072995;28;20206;-86
2023/11/15 04:05:53;;;;;;;16.00;2.15;;;10.40;99.90;;;;;;5074341;28;20032;-88
2023/11/15 04:08:18;;;;;;;13.02;1.17;;;10.40;99.90;;;;;;5074524;28;20041;-88
2023/11/15 04:10:44;;;;;;;18.00;1.98;;;10.40;99.90;;;;;;5086334;28;20032;-87
2023/11/15 04:13:09;;;;;;;20.00;1.45;;;10.50;99.90;;;;;;5074840;28;20074;-87
2023/11/15 04:15:36;;;;;;;13.85;1.60;;;10.50;99.90;;;;;;5074888;28;20031;-88
2023/11/15 04:18:02;;;;;;;20.17;1.90;;;10.50;99.90;;;;;;5073038;28;20020;-87
2023/11/15 04:20:29;;;;;;;14.85;1.20;;;10.50;99.90;;;;;;5077154;28;20032;-88
2023/11/15 04:22:56;;;;;;;17.45;1.80;;;10.50;99.90;;;;;;5074873;28;20502;-88
2023/11/15 04:25:22;;;;;;;14.60;2.10;;;10.60;99.90;;;;;;5074921;28;20510;-89
2023/11/15 04:27:48;;;;;;;21.52;1.95;;;10.60;99.90;;;;;;5074604;28;20024;-87
2023/11/15 04:30:15;;;;;;;12.23;1.17;;;10.60;99.90;;;;;;5072168;28;20052;-89
2023/11/15 04:32:41;;;;;;;13.50;1.65;;;10.60;99.90;;;;;;5071435;28;20028;-88
2023/11/15 04:35:07;;;;;;;15.48;1.20;;;10.60;99.90;;;;;;5072104;28;20397;-88
2023/11/15 04:37:34;;;;;;;11.93;1.10;;;10.70;99.90;;;;;;5092308;28;20058;-88
2023/11/15 04:40:00;;;;;;;17.75;1.55;;;10.70;99.90;;;;;;5070506;28;20027;-88
2023/11/15 04:42:26;;;;;;;13.75;1.77;;;10.70;99.90;;;;;;5086799;28;20024;-87
2023/11/15 04:44:52;;;;;;;17.45;1.15;;;10.60;99.90;;;;;;5090625;28;20020;-87
2023/11/15 04:47:17;;;;;;;16.58;1.85;;;10.60;99.90;;;;;;5073594;28;20043;-88
2023/11/15 04:49:44;;;;;;;14.63;2.28;;;10.70;99.90;;;;;;5074016;28;20055;-87
2023/11/15 04:52:10;;;;;;;15.60;2.08;;;10.70;99.90;;;;;;5090421;28;20032;-88
2023/11/15 04:54:35;;;;;;;14.25;1.42;;;10.70;99.90;;;;;;5072521;28;20032;-88
2023/11/15 04:57:03;;;;;;;13.40;1.45;;;10.70;99.90;;;;;;5062162;28;20059;-88
2023/11/15 04:59:28;;;;;;;14.98;2.40;;;10.70;99.90;;;;;;5073095;28;20070;-88
2023/11/15 05:01:54;;;;;;;17.05;1.45;;;10.70;99.90;;;;;;5093368;28;20039;-88
2023/11/15 05:04:20;;;;;;;19.60;1.50;;;10.70;99.90;;;;;;5077247;28;20053;-89
2023/11/15 05:06:46;;;;;;;12.07;1.00;;;10.70;99.90;;;;;;5074761;28;20076;-89
2023/11/15 05:09:12;;;;;;;18.17;1.75;;;10.70;99.90;;;;;;5078057;28;20031;-88
2023/11/15 05:11:38;;;;;;;16.23;2.10;;;10.60;99.90;;;;;;5094149;28;20369;-87
2023/11/15 05:14:03;;;;;;;17.27;2.42;;;10.60;99.90;;;;;;5087058;28;20028;-88
2023/11/15 05:16:29;;;;;;;16.95;1.48;;;10.70;99.90;;;;;;5073811;28;20115;-89
2023/11/15 05:18:55;;;;;;;18.20;1.45;;;10.60;99.90;;;;;;5079303;28;20032;-88
2023/11/15 05:21:20;;;;;;;18.17;1.40;;;10.60;99.90;;;;;;5091701;28;20027;-88
2023/11/15 05:23:46;;;;;;;13.57;1.42;;;10.60;99.90;;;;;;5085585;28;20384;-87
2023/11/15 05:26:12;;;;;;;17.20;1.60;;;10.70;99.90;;;;;;5074041;28;20060;-88
2023/11/15 05:28:37;;;;;;;16.00;2.03;;;10.60;99.90;;;;;;5059334;28;20386;-87
2023/11/15 05:31:03;;;;;;;13.65;1.55;;;10.70;99.90;;;;;;5071905;28;20067;-88
2023/11/15 05:33:30;;;;;;;14.23;1.95;;;10.70;99.90;;;;;;5091170;28;20104;-88
2023/11/15 05:35:56;;;;;;;9.30;1.35;;;10.60;99.90;;;;;;5072842;28;20028;-88
2023/11/15 05:38:23;;;;;;;20.80;2.28;;;10.60;99.90;;;;;;5075481;28;20028;-88
2023/11/15 05:40:49;;;;;;;20.63;1.75;;;10.60;99.90;;;;;;5077407;28;20091;-88
2023/11/15 05:43:15;;;;;;;16.50;1.55;;;10.60;99.90;;;;;;5075348;28;20028;-88
2023/11/15 05:45:40;;;;;;;16.70;2.05;;;10.60;99.90;;;;;;5073265;28;20028;-87
2023/11/15 05:48:06;;;;;;;21.27;1.85;;;10.60;99.90;;;;;;5092801;28;20066;-88
2023/11/15 05:50:32;;;;;;;11.35;1.38;;;10.60;99.90;;;;;;5077220;28;20491;-88
2023/11/15 05:52:57;;;;;;;15.68;2.40;;;10.50;99.90;;;;;;5076543;28;20023;-88
2023/11/15 05:55:23;;;;;;;15.68;1.77;;;10.50;99.90;;;;;;5072003;28;20070;-88
2023/11/15 05:57:48;;;;;;;19.60;1.75;;;10.50;99.90;;;;;;5077576;28;20058;-88
2023/11/15 06:00:19;;;;;;;18.00;1.73;;;10.50;99.90;;;;;;5077078;28;20019;-88
2023/11/15 06:02:48;;;;;;;14.50;1.58;;;10.40;99.90;;;;;;5091550;28;20146;-87
2023/11/15 06:05:14;;;;;;;14.77;1.60;;;10.40;99.90;;;;;;5081724;28;20433;-87
2023/11/15 06:07:40;;;;;;;15.20;2.13;;;10.30;99.90;;;;;;5071680;28;20107;-87
2023/11/15 06:10:08;;;;;;;16.92;2.55;;;10.30;99.90;;;;;;5069722;28;20128;-87
2023/11/15 06:12:35;;;;;;;15.93;2.58;;;10.30;99.90;;;;;;5075503;28;20028;-88
2023/11/15 06:15:01;;;;;;;16.65;2.63;;;10.30;99.90;;;;;;5075151;28;20024;-87
2023/11/15 06:17:28;;;;;;;27.08;3.67;;;10.40;99.90;;;;;;5073226;28;20505;-87
2023/11/15 06:19:54;;;;;;;22.98;2.83;;;10.40;99.90;;;;;;5074876;28;20031;-88
2023/11/15 06:22:22;;;;;;;13.63;1.80;;;10.40;99.90;;;;;;5094745;28;20029;-87
2023/11/15 06:24:49;;;;;;;17.63;3.38;;;10.50;99.90;;;;;;5072554;28;20115;-88
2023/11/15 06:27:15;;;;;;;18.15;2.60;;;10.50;99.90;;;;;;5068196;28;20024;-87
2023/11/15 06:29:44;;;;;;;17.45;2.85;;;10.50;99.90;;;;;;5073363;28;20499;-87
2023/11/15 06:32:09;;;;;;;20.15;2.72;;;10.50;99.90;;;;;;5073396;28;20032;-88
2023/11/15 06:34:37;;;;;;;16.75;3.17;;;10.60;99.90;;;;;;5075998;28;20094;-87
2023/11/15 06:37:03;;;;;;;20.83;3.63;;;10.60;99.90;;;;;;5076329;28;20034;-88
2023/11/15 06:39:28;;;;;;;19.85;3.00;;;10.60;99.90;;;;;;5075428;28;20028;-87
2023/11/15 06:41:54;;;;;;;23.75;3.42;;;10.60;99.90;;;;;;5075774;28;20385;-87
2023/11/15 06:44:19;;;;;;;21.38;3.28;;;10.70;99.90;;;;;;5076045;28;20082;-87
2023/11/15 06:46:45;;;;;;;13.45;2.88;;;10.60;99.90;;;;;;5071630;28;20070;-87
2023/11/15 06:49:10;;;;;;;22.13;3.45;;;10.60;99.90;;;;;;5075711;28;20024;-87
2023/11/15 06:51:37;;;;;;;17.20;3.38;;;10.70;99.90;;;;;;5075407;28;20028;-87
2023/11/15 06:54:03;;;;;;;20.30;3.67;;;10.60;99.90;;;;;;5075481;28;20061;-88
2023/11/15 06:56:28;;;;;;;17.63;3.85;;;10.60;99.90;;;;;;5078176;28;20032;-88
2023/11/15 06:58:54;;;;;;;16.85;2.47;;;10.60;99.90;;;;;;5077049;28;20046;-88
2023/11/15 07:01:21;;;;;;;19.65;3.10;;;10.50;99.90;;;;;;5073009;28;20028;-87
2023/11/15 07:03:47;;;;;;;16.77;3.33;;;10.50;99.90;;;;;;5076575;28;20501;-87
2023/11/15 07:06:13;;;;;;;19.45;3.17;;;10.50;99.90;;;;;;5069934;28;20036;-88
2023/11/15 07:08:39;;;;;;;16.83;2.55;;;10.50;99.90;;;;;;5066203;28;20032;-88
2023/11/15 07:11:08;;;;;;;22.10;2.83;;;10.50;99.90;;;;;;5072319;28;20028;-88
2023/11/15 07:13:34;;;;;;;22.40;2.75;;;10.50;99.90;;;;;;5075338;28;20027;-89
2023/11/15 07:16:02;;;;;;;15.45;2.35;;;10.50;99.90;;;;;;5074771;28;20043;-88
2023/11/15 07:18:29;;;;;;;16.33;2.30;;;10.40;99.90;;;;;;5076298;28;20028;-88
2023/11/15 07:20:54;;;;;;;18.23;2.38;;;10.40;99.90;;;;;;5077837;28;20032;-88
2023/11/15 07:23:20;;;;;;;13.70;2.25;;;10.40;99.90;;;;;;5074133;28;20071;-88
2023/11/15 07:25:46;;;;;;;20.75;2.70;;;10.40;99.90;;;;;;5074762;28;20123;-88
2023/11/15 07:28:12;;;;;;;19.85;3.67;;;10.40;99.90;;;;;;5094116;28;20020;-88
2023/11/15 07:30:38;;;;;;;16.67;2.78;;;10.40;99.90;;;;;;5076896;28;20024;-88
2023/11/15 07:33:03;;;;;;;15.82;2.00;;;10.40;99.90;;;;;;5076930;28;20024;-88
2023/11/15 07:35:29;;;;;;;28.35;2.95;;;10.40;99.90;;;;;;5077353;28;20035;-88
2023/11/15 07:37:54;;;;;;;15.48;2.38;;;10.50;99.90;;;;;;5072111;28;20020;-87
2023/11/15 07:40:22;;;;;;;18.00;2.25;;;10.40;99.90;;;;;;5075338;28;20024;-88
2023/11/15 07:42:49;;;;;;;29.50;2.88;;;10.40;99.90;;;;;;5092914;28;20099;-87
2023/11/15 07:45:17;;;;;;;15.27;2.20;;;10.40;99.90;;;;;;5076225;28;20039;-89
2023/11/15 07:47:43;;;;;;;13.82;2.00;;;10.50;99.90;;;;;;5084561;28;20028;-88
2023/11/15 07:50:10;;;;;;;21.42;2.15;;;10.50;99.90;;;;;;5073364;28;20020;-88
2023/11/15 07:52:37;;;;;;;21.30;2.53;;;10.50;99.90;;;;;;5065709;28;20028;-88
2023/11/15 07:55:03;;;;;;;17.52;2.33;;;10.50;99.90;;;;;;5077376;28;20188;-89
2023/11/15 07:57:29;;;;;;;22.23;2.55;;;10.50;99.90;;;;;;5090653;28;20032;-89
2023/11/15 07:59:55;;;;;;;16.05;2.63;;;10.50;99.90;;;;;;5075316;28;20131;-89
2023/11/15 08:02:22;;;;;;;13.18;1.90;;;10.50;99.90;;;;;;5077418;28;20127;-88
2023/11/15 08:04:47;;;;;;;19.08;2.00;;;10.50;99.90;;;;;;5077264;28;20029;-88
2023/11/15 08:07:13;;;;;;;13.85;1.38;;;10.50;99.90;;;;;;5094741;28;20036;-88
2023/11/15 08:09:38;;;;;;;17.80;1.67;;;10.50;99.90;;;;;;5076734;28;20047;-88
2023/11/15 08:12:05;;;;;;;10.13;1.77;;;10.50;99.90;;;;;;5075621;28;20028;-89
2023/11/15 08:14:33;;;;;;;16.40;1.30;;;10.50;99.90;;;;;;5076282;28;20035;-89
2023/11/15 08:17:01;;;;;;;15.10;1.00;;;10.50;99.90;;;;;;5075699;28;20035;-88
2023/11/15 08:19:26;;;;;;;11.88;1.20;;;10.50;99.90;;;;;;5088378;28;20027;-88
2023/11/15 08:21:52;;;;;;;13.57;0.95;;;10.50;99.90;;;;;;5087078;28;20024;-88
2023/11/15 08:24:20;;;;;;;13.00;1.40;;;10.50;99.90;;;;;;5069811;28;20024;-88
2023/11/15 08:26:55;;;;;;;5.97;0.88;;;10.60;99.90;;;;;;5088252;28;20027;-88
2023/11/15 08:29:22;;;;;;;6.75;0.70;;;10.60;99.90;;;;;;5078628;28;20024;-88
2023/11/15 08:31:48;;;;;;;11.70;0.98;;;10.60;99.90;;;;;;5076431;28;20027;-89
2023/11/15 08:34:14;;;;;;;11.18;0.98;;;10.60;99.90;;;;;;5083192;28;20070;-89
2023/11/15 08:36:40;;;;;;;6.78;0.77;;;10.60;99.90;;;;;;5079955;28;20024;-88
2023/11/15 08:39:12;;;;;;;13.80;1.33;;;10.60;99.90;;;;;;5069633;28;20032;-88
2023/11/15 08:41:40;;;;;;;10.90;0.98;;;10.60;99.90;;;;;;5088350;28;20028;-89
2023/11/15 08:44:06;;;;;;;13.93;1.30;;;10.60;99.90;;;;;;5084828;28;20478;-88
2023/11/15 08:46:33;;;;;;;19.83;2.30;;;10.60;99.90;;;;;;5075153;28;20085;-87
2023/11/15 08:49:00;;;;;;;15.45;2.80;;;10.60;99.90;;;;;;5068213;28;20040;-86
2023/11/15 08:51:26;;;;;;;11.07;1.85;;;10.60;99.90;;;;;;5083997;28;20031;-87
2023/11/15 08:53:51;;;;;;;13.45;2.53;;;10.60;99.90;;;;;;5081791;28;20024;-87
2023/11/15 08:56:18;;;;;;;16.73;3.45;;;10.60;99.90;;;;;;5076528;28;20129;-87
2023/11/15 08:58:44;;;;;;;13.30;4.13;;;10.60;99.90;;;;;;5081199;28;20032;-86
2023/11/15 09:01:10;;;;;;;14.18;2.30;;;10.60;99.90;;;;;;5066755;28;20024;-88
2023/11/15 09:03:38;;;;;;;17.52;3.15;;;10.60;99.90;;;;;;5065496;28;20091;-88
2023/11/15 09:06:05;;;;;;;16.70;2.80;;;10.50;99.90;;;;;;5070296;28;20145;-87
2023/11/15 09:08:31;;;;;;;18.00;4.85;;;10.60;99.90;;;;;;5083655;28;20024;-87
2023/11/15 09:10:57;;;;;;;18.45;2.60;;;10.60;99.90;;;;;;5074733;28;20028;-89
2023/11/15 09:13:23;;;;;;;12.38;1.92;;;10.70;99.90;;;;;;5070662;28;20115;-89
2023/11/15 09:15:51;;;;;;;10.95;1.90;;;10.70;99.90;;;;;;5083354;28;20024;-89
2023/11/15 09:18:23;;;;;;;11.25;2.00;;;10.60;99.90;;;;;;5071488;28;20105;-89
2023/11/15 09:20:49;;;;;;;19.97;1.77;;;10.60;99.90;;;;;;5089174;28;20043;-88
2023/11/15 09:23:18;;;;;;;10.27;1.60;;;10.60;99.90;;;;;;5071062;28;20024;-88
2023/11/15 09:25:45;;;;;;;15.13;1.98;;;10.70;99.90;;;;;;5068110;28;20664;-88
2023/11/15 09:28:14;;;;;;;14.93;1.73;;;10.80;99.90;;;;;;5065151;28;20020;-88
2023/11/15 09:30:51;;;;;;;8.48;1.55;;;10.90;99.90;;;;;;5059075;28;20037;-88
2023/11/15 09:33:18;;;;;;;12.60;1.85;;;11.00;99.90;;;;;;5087545;28;20078;-88
2023/11/15 09:35:44;;;;;;;10.23;1.25;;;11.00;99.90;;;;;;5075193;28;20484;-88
2023/11/15 09:38:11;;;;;;;9.35;1.13;;;11.10;99.90;;;;;;5073362;28;20028;-88
2023/11/15 09:40:37;;;;;;;12.68;1.40;;;11.10;99.90;;;;;;5071090;28;20032;-87
2023/11/15 09:43:05;;;;;;;11.98;1.38;;;11.10;99.90;;;;;;5075361;28;20090;-89
2023/11/15 09:45:35;;;;;;;12.52;1.30;;;11.10;99.90;;;;;;5072312;28;20119;-89
2023/11/15 09:48:04;;;;;;;17.77;2.05;;;11.10;99.90;;;;;;5076846;28;20032;-89
2023/11/15 09:50:33;;;;;;;12.45;0.90;;;11.10;99.90;;;;;;5072961;28;20030;-88
2023/11/15 09:53:05;;;;;;;16.20;2.25;;;11.10;99.90;;;;;;5077278;28;20032;-89
2023/11/15 09:55:31;;;;;;;9.17;1.30;;;11.20;99.90;;;;;;5075412;28;20024;-88
2023/11/15 09:57:57;;;;;;;11.77;1.60;;;11.20;99.90;;;;;;5076224;28;20101;-88
2023/11/15 10:00:23;;;;;;;14.63;1.73;;;11.30;99.90;;;;;;5075139;28;20024;-87
2023/11/15 10:02:52;;;;;;;12.85;1.23;;;11.30;99.90;;;;;;5074017;28;20045;-88
2023/11/15 10:05:21;;;;;;;15.18;2.05;;;11.30;99.90;;;;;;5092119;28;20028;-90
2023/11/15 10:08:11;;;;;;;12.18;1.60;;;11.50;99.90;;;;;;5075016;28;20435;-89
2023/11/15 10:10:38;;;;;;;18.88;1.70;;;11.50;99.90;;;;;;5070619;28;20036;-89
2023/11/15 10:13:15;;;;;;;8.60;0.93;;;11.50;99.90;;;;;;5072455;28;20107;-89
2023/11/15 10:15:43;;;;;;;16.73;1.50;;;11.60;99.90;;;;;;5086333;28;20065;-88
2023/11/15 10:18:14;;;;;;;12.52;1.00;;;11.70;99.90;;;;;;5072579;28;20580;-88
2023/11/15 10:20:41;;;;;;;13.32;0.85;;;11.70;99.90;;;;;;5079071;28;20056;-89
2023/11/15 10:23:10;;;;;;;13.75;1.63;;;11.90;99.90;;;;;;5075512;28;20024;-89
2023/11/15 10:25:47;;;;;;;13.80;0.90;;;11.90;99.90;;;;;;5074457;28;20040;-89
2023/11/15 10:28:15;;;;;;;11.13;0.90;;;11.90;99.90;;;;;;5065362;28;20606;-89
2023/11/15 10:30:41;;;;;;;13.15;1.05;;;11.90;99.90;;;;;;5062491;28;20166;-88
2023/11/15 10:33:10;;;;;;;11.05;1.10;;;12.00;99.90;;;;;;5091963;28;20103;-87
2023/11/15 10:35:37;;;;;;;9.73;0.80;;;12.20;99.90;;;;;;5073758;28;20393;-89
2023/11/15 10:38:03;;;;;;;11.93;0.95;;;12.30;99.90;;;;;;5074180;28;20020;-89
2023/11/15 10:40:30;;;;;;;13.32;0.80;;;12.30;99.90;;;;;;5061987;28;20111;-89
2023/11/15 10:43:01;;;;;;;18.08;1.50;;;12.30;99.90;;;;;;5069854;28;20024;-89
2023/11/15 10:45:30;;;;;;;7.05;0.93;;;12.30;99.90;;;;;;5087939;28;20357;-90
2023/11/15 10:48:02;;;;;;;12.10;0.77;;;12.30;99.90;;;;;;5087349;28;20020;-87
2023/11/15 10:50:31;;;;;;;14.13;1.03;;;12.30;99.90;;;;;;5086315;28;20024;-88
2023/11/15 10:52:59;;;;;;;12.25;1.20;;;12.40;99.90;;;;;;5088264;28;20365;-87
2023/11/15 10:55:27;;;;;;;16.85;2.03;;;12.60;99.90;;;;;;5088509;28;20020;-89
2023/11/15 10:58:01;;;;;;;9.93;0.93;;;12.80;99.90;;;;;;5087890;28;20024;-88
2023/11/15 11:00:30;;;;;;;9.95;1.42;;;12.70;99.90;;;;;;5083131;28;20043;-88
2023/11/15 11:02:56;;;;;;;12.05;0.98;;;12.50;99.90;;;;;;5084799;28;20499;-88
2023/11/15 11:05:48;;;;;;;12.85;0.80;;;12.40;99.90;;;;;;5084006;28;20047;-88
2023/11/15 11:08:40;;;;;;;8.45;1.00;;;12.30;99.90;;;;;;5075045;28;20512;-88
2023/11/15 11:11:20;;;;;;;8.00;0.80;;;12.20;99.90;;;;;;5074948;28;20055;-88
2023/11/15 11:14:16;;;;;;;8.35;0.73;;;12.10;99.90;;;;;;5074043;28;20027;-88
2023/11/15 11:16:45;;;;;;;7.25;0.85;;;12.00;99.90;;;;;;5085921;28;20016;-87
2023/11/15 11:19:21;;;;;;;10.05;0.60;;;11.90;99.90;;;;;;5073806;28;20028;-88
2023/11/15 11:22:06;;;;;;;11.95;1.10;;;11.90;99.90;;;;;;5092164;28;20024;-88
2023/11/15 11:24:33;;;;;;;8.32;0.75;;;12.00;99.90;;;;;;5073229;28;20050;-88
2023/11/15 11:27:16;;;;;;;16.42;1.15;;;11.90;99.90;;;;;;5067166;28;20047;-89
2023/11/15 11:29:51;;;;;;;10.18;1.00;;;11.90;99.90;;;;;;5074857;28;20031;-89
2023/11/15 11:32:20;;;;;;;10.15;0.85;;;11.80;99.90;;;;;;5074825;28;20027;-89
2023/11/15 11:35:01;;;;;;;17.35;1.23;;;11.70;99.90;;;;;;5072752;28;20526;-89
2023/11/15 11:37:44;;;;;;;20.67;1.88;;;11.70;99.90;;;;;;5074744;28;20563;-88
2023/11/15 11:40:13;;;;;;;11.57;0.60;;;11.60;99.90;;;;;;5087197;28;20020;-94
2023/11/15 11:42:43;;;;;;;14.70;1.73;;;11.70;99.90;;;;;;5076017;28;20024;-94
2023/11/15 11:45:09;;;;;;;11.38;1.25;;;11.70;99.90;;;;;;5071475;28;20020;-95
2023/11/15 11:47:39;;;;;;;10.18;0.80;;;11.80;99.90;;;;;;5080254;28;20047;-89
2023/11/15 11:50:06;;;;;;;12.23;1.17;;;11.90;99.90;;;;;;5075443;28;20034;-89
2023/11/15 11:52:34;;;;;;;14.68;1.15;;;12.00;99.90;;;;;;5071435;28;20020;-89
2023/11/15 11:55:01;;;;;;;10.60;1.02;;;12.20;99.90;;;;;;5061029;28;20016;-89
2023/11/15 11:57:27;;;;;;;11.77;1.52;;;12.40;99.90;;;;;;5075190;28;20047;-89
2023/11/15 12:00:11;;;;;;;7.35;0.60;;;12.50;99.90;;;;;;5079007;28;20062;-90
2023/11/15 12:02:41;;;;;;;9.70;0.60;;;12.80;99.90;;;;;;5078976;28;20060;-89
2023/11/15 12:05:10;;;;;;;4.50;0.63;;;13.00;99.90;;;;;;5068546;28;20025;-89
2023/11/15 12:07:42;;;;;;;12.38;0.68;;;13.00;99.90;;;;;;5067487;28;20041;-89
2023/11/15 12:10:13;;;;;;;8.57;0.70;;;13.00;99.90;;;;;;5050995;28;20031;-90
2023/11/15 12:12:42;;;;;;;9.30;0.60;;;12.80;99.90;;;;;;5061218;28;20568;-89
2023/11/15 12:15:15;;;;;;;6.30;1.05;;;12.70;99.90;;;;;;5071002;28;20044;-91
2023/11/15 12:17:44;;;;;;;8.90;0.60;;;12.60;99.90;;;;;;5071361;28;20036;-91
2023/11/15 12:20:10;;;;;;;9.05;0.50;;;12.40;99.90;;;;;;5071850;28;20108;-89
2023/11/15 12:22:42;;;;;;;8.77;0.68;;;12.40;99.90;;;;;;5070458;28;20545;-90
2023/11/15 12:25:09;;;;;;;8.90;0.82;;;12.30;99.90;;;;;;5067847;28;20457;-89
2023/11/15 12:27:37;;;;;;;10.70;0.88;;;12.20;99.90;;;;;;5066832;28;20044;-87
2023/11/15 12:30:04;;;;;;;4.40;0.60;;;12.10;99.90;;;;;;5071330;28;20464;-86
2023/11/15 12:32:30;;;;;;;9.13;1.05;;;11.80;99.90;;;;;;5071707;28;20549;-86
2023/11/15 12:34:56;;;;;;;7.95;0.60;;;11.50;99.90;;;;;;5091385;28;20016;-86
2023/11/15 12:37:24;;;;;;;8.65;0.82;;;11.40;99.90;;;;;;5079100;28;20033;-86
2023/11/15 12:39:50;;;;;;;8.75;0.60;;;11.20;99.90;;;;;;5071101;28;20061;-87